Time,TemperatureF,DewpointF,PressureIn,WindDirection,WindDirectionDegrees,WindSpeedMPH,WindSpeedGustMPH,Humidity,HourlyPrecipIn,Conditions,Clouds,dailyrainin,SoftwareType,DateUTC
2014-09-20 00:04:00,33.8,32.0,30.39,SW,233,0.0,0.0,93,0.00,,,0.00,Wunderground v.1.15,2014-09-20 04:04:00,
2014-09-20 00:10:00,33.7,31.9,30.39,SW,233,0.0,0.0,93,0.00,,,0.00,Wunderground v.1.15,2014-09-20 04:10:00,
2014-09-20 00:15:00,33.5,32.0,30.39,SW,233,0.0,0.0,94,0.00,,,0.00,Wunderground v.1.15,2014-09-20 04:15:00,
2014-09-20 00:21:00,33.4,31.6,30.39,SW,234,0.0,0.0,93,0.00,,,0.00,Wunderground v.1.15,2014-09-20 04:21:00,
2014-09-20 00:27:00,33.2,31.4,30.39,SW,234,0.0,0.0,93,0.00,,,0.00,Wunderground v.1.15,2014-09-20 04:27:00,
2014-09-20 00:32:00,33.0,31.2,30.39,SW,234,1.0,1.0,93,0.00,,,0.00,Wunderground v.1.15,2014-09-20 04:32:00,
2014-09-20 00:38:00,33.0,31.5,30.39,SW,234,0.0,1.0,94,0.00,,,0.00,Wunderground v.1.15,2014-09-20 04:38:00,
2014-09-20 00:44:00,32.9,31.4,30.39,SW,234,0.0,0.0,94,0.00,,,0.00,Wunderground v.1.15,2014-09-20 04:44:00,
2014-09-20 00:49:00,32.8,31.3,30.39,SW,234,0.0,0.0,94,0.00,,,0.00,Wunderground v.1.15,2014-09-20 04:49:00,
2014-09-20 00:55:00,32.6,31.1,30.39,SW,234,0.0,0.0,94,0.00,,,0.00,Wunderground v.1.15,2014-09-20 04:55:00,
2014-09-20 01:01:00,32.5,31.0,30.39,SW,234,0.0,0.0,94,0.00,,,0.00,Wunderground v.1.15,2014-09-20 05:01:00,
2014-09-20 01:06:00,32.3,30.8,30.39,SW,234,0.0,0.0,94,0.00,,,0.00,Wunderground v.1.15,2014-09-20 05:06:00,
2014-09-20 01:12:00,32.2,30.7,30.39,SW,234,0.0,0.0,94,0.00,,,0.00,Wunderground v.1.15,2014-09-20 05:12:00,
2014-09-20 01:17:00,32.1,30.6,30.39,SW,234,0.0,0.0,94,0.00,,,0.00,Wunderground v.1.15,2014-09-20 05:17:00,
2014-09-20 01:23:00,31.9,30.4,30.39,SW,234,0.0,0.0,94,0.00,,,0.00,Wunderground v.1.15,2014-09-20 05:23:00,
2014-09-20 01:29:00,31.8,30.3,30.39,SW,234,0.0,0.0,94,0.00,,,0.00,Wunderground v.1.15,2014-09-20 05:29:00,
2014-09-20 01:35:00,31.7,30.2,30.39,SW,234,0.0,0.0,94,0.00,,,0.00,Wunderground v.1.15,2014-09-20 05:35:00,
2014-09-20 01:41:00,31.6,30.1,30.39,SW,234,0.0,0.0,94,0.00,,,0.00,Wunderground v.1.15,2014-09-20 05:41:00,
2014-09-20 01:47:00,31.5,30.0,30.39,SW,234,0.0,0.0,94,0.00,,,0.00,Wunderground v.1.15,2014-09-20 05:47:00,
2014-09-20 01:53:00,31.4,29.9,30.40,SW,234,0.0,0.0,94,0.00,,,0.00,Wunderground v.1.15,2014-09-20 05:53:00,
2014-09-20 01:59:00,31.3,29.8,30.39,SW,234,0.0,0.0,94,0.00,,,0.00,Wunderground v.1.15,2014-09-20 05:59:00,
2014-09-20 02:04:00,31.3,29.8,30.39,SW,234,0.0,0.0,94,0.00,,,0.00,Wunderground v.1.15,2014-09-20 06:04:00,
2014-09-20 02:09:00,31.3,29.8,30.39,SW,234,0.0,0.0,94,0.00,,,0.00,Wunderground v.1.15,2014-09-20 06:09:00,
2014-09-20 02:14:00,31.2,29.9,30.39,SW,234,0.0,0.0,95,0.00,,,0.00,Wunderground v.1.15,2014-09-20 06:14:00,
2014-09-20 02:19:00,31.2,29.9,30.39,SW,234,0.0,0.0,95,0.00,,,0.00,Wunderground v.1.15,2014-09-20 06:19:00,
2014-09-20 02:24:00,31.2,29.9,30.38,SW,234,0.0,0.0,95,0.00,,,0.00,Wunderground v.1.15,2014-09-20 06:24:00,
2014-09-20 02:29:00,31.0,29.7,30.38,SW,234,0.0,0.0,95,0.00,,,0.00,Wunderground v.1.15,2014-09-20 06:29:00,
2014-09-20 02:34:00,31.0,29.7,30.38,SW,234,0.0,0.0,95,0.00,,,0.00,Wunderground v.1.15,2014-09-20 06:34:00,
2014-09-20 02:39:00,30.9,29.6,30.38,SW,234,0.0,0.0,95,0.00,,,0.00,Wunderground v.1.15,2014-09-20 06:39:00,
2014-09-20 02:44:00,30.8,29.5,30.38,SW,234,0.0,0.0,95,0.00,,,0.00,Wunderground v.1.15,2014-09-20 06:44:00,
2014-09-20 02:49:00,30.7,29.4,30.38,SW,234,0.0,0.0,95,0.00,,,0.00,Wunderground v.1.15,2014-09-20 06:49:00,
2014-09-20 02:54:00,30.7,29.4,30.38,SW,234,0.0,0.0,95,0.00,,,0.00,Wunderground v.1.15,2014-09-20 06:54:00,
2014-09-20 02:59:00,30.6,29.3,30.38,SW,234,0.0,0.0,95,0.00,,,0.00,Wunderground v.1.15,2014-09-20 06:59:00,
2014-09-20 03:04:00,30.5,29.2,30.38,SW,234,0.0,0.0,95,0.00,,,0.00,Wunderground v.1.15,2014-09-20 07:04:00,
2014-09-20 03:09:00,30.4,29.1,30.38,SW,234,0.0,0.0,95,0.00,,,0.00,Wunderground v.1.15,2014-09-20 07:09:00,
2014-09-20 03:14:00,30.4,29.1,30.37,SW,234,0.0,0.0,95,0.00,,,0.00,Wunderground v.1.15,2014-09-20 07:14:00,
2014-09-20 03:19:00,30.3,29.0,30.37,SW,234,0.0,0.0,95,0.00,,,0.00,Wunderground v.1.15,2014-09-20 07:19:00,
2014-09-20 03:24:00,30.2,28.9,30.37,SW,234,0.0,0.0,95,0.00,,,0.00,Wunderground v.1.15,2014-09-20 07:24:00,
2014-09-20 03:29:00,30.1,28.8,30.38,SW,234,0.0,0.0,95,0.00,,,0.00,Wunderground v.1.15,2014-09-20 07:29:00,
2014-09-20 03:34:00,30.1,28.8,30.37,SW,234,0.0,0.0,95,0.00,,,0.00,Wunderground v.1.15,2014-09-20 07:34:00,
2014-09-20 03:39:00,29.9,28.6,30.37,SW,234,0.0,0.0,95,0.00,,,0.00,Wunderground v.1.15,2014-09-20 07:39:00,
2014-09-20 03:44:00,29.9,28.6,30.37,SW,234,0.0,0.0,95,0.00,,,0.00,Wunderground v.1.15,2014-09-20 07:44:00,
2014-09-20 03:49:00,29.8,28.5,30.37,SW,234,0.0,0.0,95,0.00,,,0.00,Wunderground v.1.15,2014-09-20 07:49:00,
2014-09-20 03:54:00,29.9,28.6,30.37,SW,234,0.0,0.0,95,0.00,,,0.00,Wunderground v.1.15,2014-09-20 07:54:00,
2014-09-20 03:59:00,29.9,28.6,30.37,SW,234,0.0,0.0,95,0.00,,,0.00,Wunderground v.1.15,2014-09-20 07:59:00,
2014-09-20 04:04:00,30.0,28.7,30.38,SW,234,0.0,0.0,95,0.00,,,0.00,Wunderground v.1.15,2014-09-20 08:04:00,
2014-09-20 04:09:00,29.9,28.6,30.38,SW,234,0.0,0.0,95,0.00,,,0.00,Wunderground v.1.15,2014-09-20 08:09:00,
2014-09-20 04:14:00,29.9,28.6,30.38,SW,234,0.0,0.0,95,0.00,,,0.00,Wunderground v.1.15,2014-09-20 08:14:00,
2014-09-20 04:19:00,29.8,28.5,30.37,SW,234,0.0,0.0,95,0.00,,,0.00,Wunderground v.1.15,2014-09-20 08:19:00,
2014-09-20 04:24:00,29.8,28.5,30.37,SW,234,0.0,0.0,95,0.00,,,0.00,Wunderground v.1.15,2014-09-20 08:24:00,
2014-09-20 04:29:00,29.7,28.4,30.37,SW,234,0.0,0.0,95,0.00,,,0.00,Wunderground v.1.15,2014-09-20 08:29:00,
2014-09-20 04:35:00,29.7,28.4,30.37,SW,234,0.0,0.0,95,0.00,,,0.00,Wunderground v.1.15,2014-09-20 08:35:00,
2014-09-20 04:40:00,29.6,28.3,30.37,SW,234,0.0,0.0,95,0.00,,,0.00,Wunderground v.1.15,2014-09-20 08:40:00,
2014-09-20 04:45:00,29.5,28.2,30.37,SW,234,0.0,0.0,95,0.00,,,0.00,Wunderground v.1.15,2014-09-20 08:45:00,
2014-09-20 04:50:00,29.4,28.1,30.37,SW,234,0.0,0.0,95,0.00,,,0.00,Wunderground v.1.15,2014-09-20 08:50:00,
2014-09-20 04:55:00,29.4,28.1,30.36,SW,234,0.0,0.0,95,0.00,,,0.00,Wunderground v.1.15,2014-09-20 08:55:00,
2014-09-20 05:00:00,29.5,28.5,30.36,SW,234,1.0,1.0,96,0.00,,,0.00,Wunderground v.1.15,2014-09-20 09:00:00,
2014-09-20 05:05:00,29.6,28.6,30.36,SW,234,0.0,1.0,96,0.00,,,0.00,Wunderground v.1.15,2014-09-20 09:05:00,
2014-09-20 05:10:00,29.8,28.8,30.35,SW,234,0.0,0.0,96,0.00,,,0.00,Wunderground v.1.15,2014-09-20 09:10:00,
2014-09-20 05:15:00,29.8,28.8,30.35,NNW,333,2.0,2.0,96,0.00,,,0.00,Wunderground v.1.15,2014-09-20 09:15:00,
2014-09-20 05:20:00,29.9,28.9,30.35,North,350,1.0,1.0,96,0.00,,,0.00,Wunderground v.1.15,2014-09-20 09:20:00,
2014-09-20 05:25:00,29.9,28.9,30.35,North,350,0.0,1.0,96,0.00,,,0.00,Wunderground v.1.15,2014-09-20 09:25:00,
2014-09-20 05:30:00,30.0,29.0,30.35,North,350,0.0,0.0,96,0.00,,,0.00,Wunderground v.1.15,2014-09-20 09:30:00,
2014-09-20 05:35:00,30.0,29.0,30.35,North,350,0.0,0.0,96,0.00,,,0.00,Wunderground v.1.15,2014-09-20 09:35:00,
2014-09-20 05:40:00,30.0,29.0,30.34,North,350,0.0,0.0,96,0.00,,,0.00,Wunderground v.1.15,2014-09-20 09:40:00,
2014-09-20 05:45:00,29.9,28.9,30.34,North,350,0.0,1.0,96,0.00,,,0.00,Wunderground v.1.15,2014-09-20 09:45:00,
2014-09-20 05:50:00,29.9,28.9,30.34,North,350,0.0,0.0,96,0.00,,,0.00,Wunderground v.1.15,2014-09-20 09:50:00,
2014-09-20 05:55:00,29.8,28.8,30.34,North,350,0.0,0.0,96,0.00,,,0.00,Wunderground v.1.15,2014-09-20 09:55:00,
2014-09-20 06:00:00,29.7,28.7,30.34,North,350,0.0,0.0,96,0.00,,,0.00,Wunderground v.1.15,2014-09-20 10:00:00,
2014-09-20 06:05:00,29.7,28.7,30.35,North,350,0.0,0.0,96,0.00,,,0.00,Wunderground v.1.15,2014-09-20 10:05:00,
2014-09-20 06:10:00,29.7,28.7,30.35,North,350,0.0,0.0,96,0.00,,,0.00,Wunderground v.1.15,2014-09-20 10:10:00,
2014-09-20 06:15:00,29.6,28.6,30.35,North,350,0.0,0.0,96,0.00,,,0.00,Wunderground v.1.15,2014-09-20 10:15:00,
2014-09-20 06:20:00,29.6,28.6,30.35,North,350,0.0,0.0,96,0.00,,,0.00,Wunderground v.1.15,2014-09-20 10:20:00,
2014-09-20 06:25:00,29.5,28.5,30.35,North,350,0.0,1.0,96,0.00,,,0.00,Wunderground v.1.15,2014-09-20 10:25:00,
2014-09-20 06:30:00,29.5,28.5,30.35,North,350,0.0,0.0,96,0.00,,,0.00,Wunderground v.1.15,2014-09-20 10:30:00,
2014-09-20 06:35:00,29.5,28.5,30.36,North,350,0.0,0.0,96,0.00,,,0.00,Wunderground v.1.15,2014-09-20 10:35:00,
2014-09-20 06:40:00,29.5,28.5,30.36,North,350,0.0,0.0,96,0.00,,,0.00,Wunderground v.1.15,2014-09-20 10:40:00,
2014-09-20 06:45:00,29.5,28.5,30.37,North,350,0.0,0.0,96,0.00,,,0.00,Wunderground v.1.15,2014-09-20 10:45:00,
2014-09-20 06:50:00,29.7,29.0,30.37,North,350,0.0,1.0,97,0.00,,,0.00,Wunderground v.1.15,2014-09-20 10:50:00,
2014-09-20 06:55:00,29.9,29.2,30.37,North,350,0.0,1.0,97,0.00,,,0.00,Wunderground v.1.15,2014-09-20 10:55:00,
2014-09-20 07:00:00,30.1,29.4,30.37,North,350,0.0,0.0,97,0.00,,,0.00,Wunderground v.1.15,2014-09-20 11:00:00,
2014-09-20 07:05:00,30.2,29.5,30.36,North,350,0.0,0.0,97,0.00,,,0.00,Wunderground v.1.15,2014-09-20 11:05:00,
2014-09-20 07:10:00,30.3,29.6,30.36,North,350,0.0,0.0,97,0.00,,,0.00,Wunderground v.1.15,2014-09-20 11:10:00,
2014-09-20 07:15:00,30.6,29.9,30.35,North,350,0.0,0.0,97,0.00,,,0.00,Wunderground v.1.15,2014-09-20 11:15:00,
2014-09-20 07:20:00,30.9,30.1,30.35,North,350,0.0,0.0,97,0.00,,,0.00,Wunderground v.1.15,2014-09-20 11:20:00,
2014-09-20 07:25:00,31.2,30.4,30.35,North,350,0.0,0.0,97,0.00,,,0.00,Wunderground v.1.15,2014-09-20 11:25:00,
2014-09-20 07:30:00,31.7,30.9,30.35,North,350,0.0,0.0,97,0.00,,,0.00,Wunderground v.1.15,2014-09-20 11:30:00,
2014-09-20 07:35:00,31.9,31.1,30.34,North,350,0.0,0.0,97,0.00,,,0.00,Wunderground v.1.15,2014-09-20 11:35:00,
2014-09-20 07:40:00,32.3,31.5,30.34,North,350,0.0,1.0,97,0.00,,,0.00,Wunderground v.1.15,2014-09-20 11:40:00,
2014-09-20 07:45:00,32.7,31.9,30.33,North,351,0.0,2.0,97,0.00,,,0.00,Wunderground v.1.15,2014-09-20 11:45:00,
2014-09-20 07:50:00,33.0,32.2,30.33,North,351,0.0,0.0,97,0.00,,,0.00,Wunderground v.1.15,2014-09-20 11:50:00,
2014-09-20 07:55:00,33.3,32.5,30.33,North,350,0.0,0.0,97,0.00,,,0.00,Wunderground v.1.15,2014-09-20 11:55:00,
2014-09-20 08:00:00,33.8,33.3,30.33,NNE,32,0.0,2.0,98,0.00,,,0.00,Wunderground v.1.15,2014-09-20 12:00:00,
2014-09-20 08:05:00,34.5,34.0,30.33,NE,34,0.0,3.0,98,0.00,,,0.00,Wunderground v.1.15,2014-09-20 12:05:00,
2014-09-20 08:10:00,35.0,34.5,30.33,NE,34,0.0,1.0,98,0.00,,,0.00,Wunderground v.1.15,2014-09-20 12:10:00,
2014-09-20 08:15:00,36.0,35.5,30.32,NE,34,0.0,2.0,98,0.00,,,0.00,Wunderground v.1.15,2014-09-20 12:15:00,
2014-09-20 08:20:00,37.3,36.8,30.32,ENE,73,2.0,3.0,98,0.00,,,0.00,Wunderground v.1.15,2014-09-20 12:20:00,
2014-09-20 08:25:00,38.5,38.0,30.31,SE,138,1.0,5.0,98,0.00,,,0.00,Wunderground v.1.15,2014-09-20 12:25:00,
2014-09-20 08:30:00,39.9,39.6,30.31,South,184,3.0,5.0,99,0.00,,,0.00,Wunderground v.1.15,2014-09-20 12:30:00,
2014-09-20 08:35:00,41.5,41.0,30.31,ESE,107,0.0,8.0,98,0.00,,,0.00,Wunderground v.1.15,2014-09-20 12:35:00,
2014-09-20 08:41:00,42.5,42.2,30.31,SSW,207,10.0,10.0,99,0.00,,,0.00,Wunderground v.1.15,2014-09-20 12:41:00,
2014-09-20 08:46:00,43.9,43.6,30.32,West,265,5.0,10.0,99,0.00,,,0.00,Wunderground v.1.15,2014-09-20 12:46:00,
2014-09-20 08:51:00,45.1,44.8,30.32,SW,225,6.0,7.0,99,0.00,,,0.00,Wunderground v.1.15,2014-09-20 12:51:00,
2014-09-20 08:56:00,45.7,45.4,30.32,WSW,245,4.0,9.0,99,0.00,,,0.00,Wunderground v.1.15,2014-09-20 12:56:00,
2014-09-20 09:01:00,46.3,45.8,30.32,WSW,240,5.0,7.0,98,0.00,,,0.00,Wunderground v.1.15,2014-09-20 13:01:00,
2014-09-20 09:06:00,46.9,45.3,30.32,SW,217,4.0,7.0,94,0.00,,,0.00,Wunderground v.1.15,2014-09-20 13:06:00,
2014-09-20 09:07:00,47.0,45.4,30.31,SSW,196,2.0,7.0,94,0.00,,,0.00,Wunderground v.1.15,2014-09-20 13:07:00,
2014-09-20 09:12:00,47.7,44.9,30.31,South,171,4.0,8.0,90,0.00,,,0.00,Wunderground v.1.15,2014-09-20 13:12:00,
2014-09-20 09:17:00,48.1,45.0,30.31,SW,219,1.0,8.0,89,0.00,,,0.00,Wunderground v.1.15,2014-09-20 13:17:00,
2014-09-20 09:22:00,48.6,45.2,30.31,SW,232,4.0,5.0,88,0.00,,,0.00,Wunderground v.1.15,2014-09-20 13:22:00,
2014-09-20 09:27:00,49.0,45.3,30.30,South,189,0.0,6.0,87,0.00,,,0.00,Wunderground v.1.15,2014-09-20 13:27:00,
2014-09-20 09:32:00,49.3,45.0,30.31,SW,215,2.0,5.0,85,0.00,,,0.00,Wunderground v.1.15,2014-09-20 13:32:00,
2014-09-20 09:37:00,49.6,45.6,30.30,SW,234,3.0,7.0,86,0.00,,,0.00,Wunderground v.1.15,2014-09-20 13:37:00,
2014-09-20 09:42:00,49.9,45.9,30.30,South,191,4.0,5.0,86,0.00,,,0.00,Wunderground v.1.15,2014-09-20 13:42:00,
2014-09-20 09:47:00,50.3,46.0,30.30,SW,222,2.0,6.0,85,0.00,,,0.00,Wunderground v.1.15,2014-09-20 13:47:00,
2014-09-20 09:52:00,50.5,45.5,30.30,SW,214,1.0,6.0,83,0.00,,,0.00,Wunderground v.1.15,2014-09-20 13:52:00,
2014-09-20 09:57:00,50.6,45.6,30.30,SW,230,1.0,7.0,83,0.00,,,0.00,Wunderground v.1.15,2014-09-20 13:57:00,
2014-09-20 10:02:00,50.7,45.7,30.30,West,266,2.0,6.0,83,0.00,,,0.00,Wunderground v.1.15,2014-09-20 14:02:00,
2014-09-20 10:07:00,50.8,45.5,30.30,SSW,192,1.0,6.0,82,0.00,,,0.00,Wunderground v.1.15,2014-09-20 14:07:00,
2014-09-20 10:12:00,50.9,45.6,30.30,WSW,248,4.0,5.0,82,0.00,,,0.00,Wunderground v.1.15,2014-09-20 14:12:00,
2014-09-20 10:17:00,51.0,45.7,30.29,SSW,192,0.0,8.0,82,0.00,,,0.00,Wunderground v.1.15,2014-09-20 14:17:00,
2014-09-20 10:22:00,51.0,45.4,30.29,SW,225,0.0,4.0,81,0.00,,,0.00,Wunderground v.1.15,2014-09-20 14:22:00,
2014-09-20 10:27:00,51.0,45.7,30.28,SW,226,1.0,4.0,82,0.00,,,0.00,Wunderground v.1.15,2014-09-20 14:27:00,
2014-09-20 10:32:00,51.1,45.8,30.28,SW,235,0.0,3.0,82,0.00,,,0.00,Wunderground v.1.15,2014-09-20 14:32:00,
2014-09-20 10:37:00,51.2,46.2,30.28,SSE,151,0.0,4.0,83,0.00,,,0.00,Wunderground v.1.15,2014-09-20 14:37:00,
2014-09-20 10:42:00,51.3,46.0,30.28,WSW,251,2.0,5.0,82,0.00,,,0.00,Wunderground v.1.15,2014-09-20 14:42:00,
2014-09-20 10:47:00,51.5,46.2,30.28,SSW,209,0.0,6.0,82,0.00,,,0.00,Wunderground v.1.15,2014-09-20 14:47:00,
2014-09-20 10:52:00,51.7,46.4,30.28,West,273,2.0,2.0,82,0.00,,,0.00,Wunderground v.1.15,2014-09-20 14:52:00,
2014-09-20 10:57:00,51.7,46.1,30.28,West,279,1.0,4.0,81,0.00,,,0.00,Wunderground v.1.15,2014-09-20 14:57:00,
2014-09-20 11:02:00,51.9,46.6,30.28,SW,236,1.0,4.0,82,0.00,,,0.00,Wunderground v.1.15,2014-09-20 15:02:00,
2014-09-20 11:05:00,51.9,46.6,30.28,WSW,251,4.0,5.0,82,0.00,,,0.00,Wunderground v.1.15,2014-09-20 15:05:00,
2014-09-20 11:10:00,52.1,46.8,30.28,WSW,254,3.0,3.0,82,0.00,,,0.00,Wunderground v.1.15,2014-09-20 15:10:00,
2014-09-20 11:14:00,52.2,46.9,30.28,WSW,257,4.0,5.0,82,0.00,,,0.00,Wunderground v.1.15,2014-09-20 15:14:00,
2014-09-20 11:19:00,52.3,46.6,30.28,SW,236,5.0,6.0,81,0.00,,,0.00,Wunderground v.1.15,2014-09-20 15:19:00,
2014-09-20 11:24:00,52.4,46.7,30.27,WSW,246,2.0,5.0,81,0.00,,,0.00,Wunderground v.1.15,2014-09-20 15:24:00,
2014-09-20 11:29:00,52.5,47.2,30.27,WSW,247,3.0,5.0,82,0.00,,,0.00,Wunderground v.1.15,2014-09-20 15:29:00,
2014-09-20 11:34:00,52.7,47.4,30.27,WSW,254,2.0,6.0,82,0.00,,,0.00,Wunderground v.1.15,2014-09-20 15:34:00,
2014-09-20 11:39:00,52.8,47.5,30.26,SSW,195,5.0,6.0,82,0.00,,,0.00,Wunderground v.1.15,2014-09-20 15:39:00,
2014-09-20 11:44:00,53.1,47.4,30.26,WSW,251,3.0,6.0,81,0.00,,,0.00,Wunderground v.1.15,2014-09-20 15:44:00,
2014-09-20 11:49:00,53.3,47.6,30.26,South,185,3.0,8.0,81,0.00,,,0.00,Wunderground v.1.15,2014-09-20 15:49:00,
2014-09-20 11:54:00,53.7,48.0,30.25,WSW,245,4.0,6.0,81,0.00,,,0.00,Wunderground v.1.15,2014-09-20 15:54:00,
2014-09-20 11:59:00,54.0,48.0,30.25,SSW,200,2.0,9.0,80,0.00,,,0.00,Wunderground v.1.15,2014-09-20 15:59:00,
2014-09-20 12:04:00,54.2,48.2,30.25,SW,225,2.0,7.0,80,0.00,,,0.00,Wunderground v.1.15,2014-09-20 16:04:00,
2014-09-20 12:09:00,54.5,48.5,30.25,WSW,242,1.0,7.0,80,0.00,,,0.00,Wunderground v.1.15,2014-09-20 16:09:00,
2014-09-20 12:14:00,54.7,48.3,30.25,WSW,240,2.0,6.0,79,0.00,,,0.00,Wunderground v.1.15,2014-09-20 16:14:00,
2014-09-20 12:19:00,54.8,48.7,30.24,WSW,253,2.0,6.0,80,0.00,,,0.00,Wunderground v.1.15,2014-09-20 16:19:00,
2014-09-20 12:24:00,55.0,48.9,30.24,SSW,196,2.0,6.0,80,0.00,,,0.00,Wunderground v.1.15,2014-09-20 16:24:00,
2014-09-20 12:29:00,55.1,49.0,30.23,South,190,2.0,6.0,80,0.00,,,0.00,Wunderground v.1.15,2014-09-20 16:29:00,
2014-09-20 12:34:00,55.5,49.4,30.23,SE,146,4.0,5.0,80,0.00,,,0.00,Wunderground v.1.15,2014-09-20 16:34:00,
2014-09-20 12:39:00,55.8,49.7,30.22,SSW,205,5.0,8.0,80,0.00,,,0.00,Wunderground v.1.15,2014-09-20 16:39:00,
2014-09-20 12:44:00,56.2,49.8,30.23,SSW,204,4.0,10.0,79,0.00,,,0.00,Wunderground v.1.15,2014-09-20 16:44:00,
2014-09-20 12:49:00,56.8,50.4,30.22,West,267,6.0,10.0,79,0.00,,,0.00,Wunderground v.1.15,2014-09-20 16:49:00,
2014-09-20 12:54:00,57.5,50.7,30.22,SSW,192,5.0,9.0,78,0.00,,,0.00,Wunderground v.1.15,2014-09-20 16:54:00,
2014-09-20 12:59:00,58.2,51.0,30.21,WSW,254,5.0,9.0,77,0.00,,,0.00,Wunderground v.1.15,2014-09-20 16:59:00,
2014-09-20 13:04:00,58.9,51.7,30.21,SSW,192,4.0,11.0,77,0.00,,,0.00,Wunderground v.1.15,2014-09-20 17:04:00,
2014-09-20 13:09:00,59.9,52.0,30.21,South,170,6.0,11.0,75,0.00,,,0.00,Wunderground v.1.15,2014-09-20 17:09:00,
2014-09-20 13:14:00,60.4,52.4,30.20,WSW,248,7.0,12.0,75,0.00,,,0.00,Wunderground v.1.15,2014-09-20 17:14:00,
2014-09-20 13:19:00,61.2,52.5,30.20,SW,235,4.0,12.0,73,0.00,,,0.00,Wunderground v.1.15,2014-09-20 17:19:00,
2014-09-20 13:25:00,61.7,52.6,30.20,SSE,154,4.0,8.0,72,0.00,,,0.00,Wunderground v.1.15,2014-09-20 17:25:00,
2014-09-20 13:30:00,62.1,52.2,30.19,SSE,168,8.0,8.0,70,0.00,,,0.00,Wunderground v.1.15,2014-09-20 17:30:00,
2014-09-20 13:35:00,62.0,52.5,30.19,SW,215,7.0,14.0,71,0.00,,,0.00,Wunderground v.1.15,2014-09-20 17:35:00,
2014-09-20 13:40:00,62.3,53.2,30.19,SSW,199,5.0,6.0,72,0.00,,,0.00,Wunderground v.1.15,2014-09-20 17:40:00,
2014-09-20 13:45:00,62.4,52.9,30.18,SSE,153,5.0,16.0,71,0.00,,,0.00,Wunderground v.1.15,2014-09-20 17:45:00,
2014-09-20 13:50:00,62.5,53.0,30.18,SSE,154,6.0,9.0,71,0.00,,,0.00,Wunderground v.1.15,2014-09-20 17:50:00,
2014-09-20 13:55:00,62.7,53.2,30.17,SSW,213,7.0,10.0,71,0.00,,,0.00,Wunderground v.1.15,2014-09-20 17:55:00,
2014-09-20 14:00:00,62.7,53.2,30.17,WSW,244,4.0,7.0,71,0.00,,,0.00,Wunderground v.1.15,2014-09-20 18:00:00,
2014-09-20 14:05:00,62.5,53.0,30.17,West,262,3.0,11.0,71,0.00,,,0.00,Wunderground v.1.15,2014-09-20 18:05:00,
2014-09-20 14:10:00,62.2,53.4,30.17,SW,225,12.0,15.0,73,0.00,,,0.00,Wunderground v.1.15,2014-09-20 18:10:00,
2014-09-20 14:15:00,62.2,53.1,30.17,SSW,205,7.0,21.0,72,0.00,,,0.00,Wunderground v.1.15,2014-09-20 18:15:00,
2014-09-20 14:20:00,62.1,53.3,30.16,SE,128,7.0,8.0,73,0.00,,,0.00,Wunderground v.1.15,2014-09-20 18:20:00,
2014-09-20 14:25:00,62.0,53.2,30.16,SSW,198,10.0,14.0,73,0.00,,,0.00,Wunderground v.1.15,2014-09-20 18:25:00,
2014-09-20 14:30:00,61.7,53.3,30.16,SE,135,4.0,8.0,74,0.00,,,0.00,Wunderground v.1.15,2014-09-20 18:30:00,
2014-09-20 14:35:00,61.4,53.4,30.16,South,178,5.0,10.0,75,0.00,,,0.00,Wunderground v.1.15,2014-09-20 18:35:00,
2014-09-20 14:40:00,61.2,53.6,30.16,SW,214,8.0,8.0,76,0.00,,,0.00,Wunderground v.1.15,2014-09-20 18:40:00,
2014-09-20 14:45:00,61.1,53.5,30.16,SSE,167,9.0,11.0,76,0.00,,,0.00,Wunderground v.1.15,2014-09-20 18:45:00,
2014-09-20 14:50:00,61.1,53.5,30.16,SSE,168,5.0,7.0,76,0.00,,,0.00,Wunderground v.1.15,2014-09-20 18:50:00,
2014-09-20 14:55:00,61.2,53.6,30.16,South,174,9.0,11.0,76,0.00,,,0.00,Wunderground v.1.15,2014-09-20 18:55:00,
2014-09-20 15:00:00,61.1,53.8,30.16,SSE,161,2.0,7.0,77,0.00,,,0.00,Wunderground v.1.15,2014-09-20 19:00:00,
2014-09-20 15:05:00,61.2,54.3,30.16,SSE,165,2.0,7.0,78,0.00,,,0.00,Wunderground v.1.15,2014-09-20 19:05:00,
2014-09-20 15:10:00,61.4,54.1,30.16,SE,140,5.0,8.0,77,0.00,,,0.00,Wunderground v.1.15,2014-09-20 19:10:00,
2014-09-20 15:16:00,61.6,54.0,30.16,South,188,2.0,11.0,76,0.00,,,0.00,Wunderground v.1.15,2014-09-20 19:16:00,
2014-09-20 15:21:00,61.6,54.7,30.15,SW,225,2.0,4.0,78,0.00,,,0.00,Wunderground v.1.15,2014-09-20 19:21:00,
2014-09-20 15:26:00,61.8,54.5,30.15,SW,219,4.0,6.0,77,0.00,,,0.00,Wunderground v.1.15,2014-09-20 19:26:00,
2014-09-20 15:31:00,61.9,54.6,30.16,SSW,208,4.0,6.0,77,0.00,,,0.00,Wunderground v.1.15,2014-09-20 19:31:00,
2014-09-20 15:36:00,61.9,54.6,30.15,SSE,155,6.0,7.0,77,0.00,,,0.00,Wunderground v.1.15,2014-09-20 19:36:00,
2014-09-20 15:41:00,61.9,54.6,30.15,SW,221,2.0,4.0,77,0.00,,,0.00,Wunderground v.1.15,2014-09-20 19:41:00,
2014-09-20 15:46:00,61.8,54.9,30.15,SSE,163,1.0,7.0,78,0.00,,,0.00,Wunderground v.1.15,2014-09-20 19:46:00,
2014-09-20 15:51:00,61.7,54.8,30.15,SSW,213,3.0,4.0,78,0.00,,,0.00,Wunderground v.1.15,2014-09-20 19:51:00,
2014-09-20 15:56:00,61.6,55.0,30.15,SSW,204,2.0,8.0,79,0.00,,,0.00,Wunderground v.1.15,2014-09-20 19:56:00,
2014-09-20 16:01:00,61.5,54.9,30.15,SW,214,6.0,7.0,79,0.00,,,0.00,Wunderground v.1.15,2014-09-20 20:01:00,
2014-09-20 16:06:00,61.5,54.9,30.14,South,181,1.0,10.0,79,0.00,,,0.00,Wunderground v.1.15,2014-09-20 20:06:00,
2014-09-20 16:11:00,61.4,54.8,30.15,South,186,1.0,10.0,79,0.00,,,0.00,Wunderground v.1.15,2014-09-20 20:11:00,
2014-09-20 16:16:00,61.4,55.2,30.14,South,188,5.0,10.0,80,0.00,,,0.00,Wunderground v.1.15,2014-09-20 20:16:00,
2014-09-20 16:21:00,61.4,55.2,30.14,SSW,193,1.0,13.0,80,0.00,,,0.00,Wunderground v.1.15,2014-09-20 20:21:00,
2014-09-20 16:26:00,61.4,55.2,30.14,SSW,194,1.0,13.0,80,0.00,,,0.00,Wunderground v.1.15,2014-09-20 20:26:00,
2014-09-20 16:31:00,61.4,55.2,30.14,SW,224,4.0,11.0,80,0.00,,,0.00,Wunderground v.1.15,2014-09-20 20:31:00,